Time;durP1;ratioP1;P1;durP2;ratioP2;P2;SDS_P1;SDS_P2;PMS_P1;PMS_P2;Temp;Humidity;BMP_temperature;BMP_pressure;BME280_temperature;BME280_humidity;BME280_pressure;Samples;Min_cycle;Max_cycle;Signal;HPM_P1;HPM_P2
2023/06/01 00:02:16;;;;;;;5.00;2.97;;;8.70;1.00;;;;;;4389788;27;656541;-68
2023/06/01 00:05:03;;;;;;;5.57;3.40;;;8.70;1.00;;;;;;4406416;27;655561;-68
2023/06/01 00:07:52;;;;;;;7.30;2.97;;;8.70;99.90;;;;;;4372281;28;654640;-69
2023/06/01 00:10:39;;;;;;;12.33;3.27;;;8.70;99.90;;;;;;4384636;28;656056;-68
2023/06/01 00:13:26;;;;;;;7.10;3.03;;;8.70;99.90;;;;;;4367861;27;656687;-68
2023/06/01 00:16:13;;;;;;;8.07;3.63;;;8.70;99.90;;;;;;4379224;27;655448;-69
2023/06/01 00:19:01;;;;;;;6.60;3.70;;;8.60;99.90;;;;;;4363604;28;655556;-69
2023/06/01 00:21:48;;;;;;;8.03;3.57;;;8.70;99.90;;;;;;4394361;27;656889;-68
2023/06/01 00:24:37;;;;;;;6.50;3.30;;;8.70;1.00;;;;;;4367646;27;656956;-69
2023/06/01 00:27:24;;;;;;;6.00;3.50;;;8.70;1.00;;;;;;4402276;27;655181;-69
2023/06/01 00:30:13;;;;;;;14.13;3.43;;;8.60;1.00;;;;;;4361292;28;654909;-69
2023/06/01 00:33:00;;;;;;;9.77;3.63;;;8.60;1.00;;;;;;4373999;28;655641;-69
2023/06/01 00:35:47;;;;;;;6.93;3.27;;;8.60;1.00;;;;;;4401988;28;654116;-68
2023/06/01 00:38:35;;;;;;;7.57;3.23;;;8.60;1.00;;;;;;4393726;27;655323;-69
2023/06/01 00:41:24;;;;;;;8.70;3.90;;;8.50;1.00;;;;;;4410506;27;656118;-68
2023/06/01 00:44:12;;;;;;;8.33;3.47;;;8.60;1.00;;;;;;4367442;27;655018;-69
2023/06/01 00:46:59;;;;;;;6.00;3.70;;;8.50;99.90;;;;;;4386955;27;654567;-68
2023/06/01 00:49:47;;;;;;;7.93;3.90;;;8.50;1.00;;;;;;4388086;27;655298;-68
2023/06/01 00:52:34;;;;;;;11.00;3.80;;;8.50;1.00;;;;;;4398649;27;656244;-69
2023/06/01 00:55:21;;;;;;;5.67;3.73;;;8.50;1.00;;;;;;4375588;27;655794;-69
2023/06/01 00:58:10;;;;;;;10.40;4.00;;;8.40;99.90;;;;;;4385791;28;655111;-69
2023/06/01 01:00:57;;;;;;;7.50;3.87;;;8.40;99.90;;;;;;4354525;28;656807;-69
2023/06/01 01:03:46;;;;;;;11.20;3.95;;;8.40;99.90;;;;;;4385757;27;655994;-69
2023/06/01 01:06:41;;;;;;;11.83;3.97;;;8.30;99.90;;;;;;4360292;27;657368;-69
2023/06/01 01:09:32;;;;;;;11.00;4.53;;;8.30;99.90;;;;;;4365229;27;657363;-68
2023/06/01 01:12:22;;;;;;;8.33;4.17;;;8.30;99.90;;;;;;4363265;27;656684;-68
2023/06/01 01:15:13;;;;;;;8.80;3.90;;;8.30;99.90;;;;;;4365861;27;655871;-68
2023/06/01 01:18:03;;;;;;;10.40;4.17;;;8.30;1.00;;;;;;4345016;28;656479;-69
2023/06/01 01:20:57;;;;;;;6.47;4.05;;;8.20;1.00;;;;;;4377021;27;655949;-69
2023/06/01 01:23:58;;;;;;;8.93;4.20;;;8.20;1.00;;;;;;4382336;28;654475;-69
2023/06/01 01:27:11;;;;;;;9.53;4.57;;;8.20;1.00;;;;;;4356455;27;656051;-69
2023/06/01 01:30:02;;;;;;;7.87;3.93;;;8.20;23.40;;;;;;4367765;28;654868;-69
2023/06/01 01:32:50;;;;;;;12.30;4.50;;;8.10;99.90;;;;;;4374121;27;655665;-68
2023/06/01 01:35:38;;;;;;;10.33;4.43;;;8.10;99.90;;;;;;4367070;28;658062;-68
2023/06/01 01:38:25;;;;;;;10.27;4.07;;;8.10;99.90;;;;;;4399388;27;656955;-69
2023/06/01 01:41:12;;;;;;;10.03;4.80;;;8.10;1.00;;;;;;4407066;27;658255;-69
2023/06/01 01:44:00;;;;;;;9.80;4.87;;;8.10;1.00;;;;;;4378434;28;656450;-69
2023/06/01 01:46:54;;;;;;;15.30;5.07;;;8.10;1.00;;;;;;4396458;27;654813;-68
2023/06/01 01:49:42;;;;;;;11.53;4.67;;;8.10;1.00;;;;;;4361384;27;655500;-69
2023/06/01 01:52:33;;;;;;;9.83;5.17;;;8.00;1.00;;;;;;4398717;27;656448;-69
2023/06/01 01:55:23;;;;;;;12.07;5.40;;;8.00;99.90;;;;;;4363845;27;654727;-69
2023/06/01 01:58:10;;;;;;;11.15;5.47;;;7.90;1.00;;;;;;4359321;28;656843;-69
2023/06/01 02:00:57;;;;;;;19.70;7.00;;;7.90;1.00;;;;;;4406033;27;655809;-68
2023/06/01 02:03:47;;;;;;;19.63;7.10;;;7.90;1.00;;;;;;4386740;28;655963;-69
2023/06/01 02:06:34;;;;;;;17.67;7.80;;;7.80;58.20;;;;;;4419105;27;655242;-68
2023/06/01 02:09:21;;;;;;;22.13;7.47;;;7.80;47.50;;;;;;4382616;27;656678;-69
2023/06/01 02:12:09;;;;;;;17.43;7.83;;;7.80;99.90;;;;;;4386689;28;657478;-68
2023/06/01 02:14:56;;;;;;;15.30;6.87;;;7.80;84.80;;;;;;4366897;28;657252;-69
2023/06/01 02:17:43;;;;;;;17.97;7.80;;;7.80;99.90;;;;;;4381428;28;658166;-69
2023/06/01 02:20:32;;;;;;;22.43;7.60;;;7.80;99.90;;;;;;4366809;28;656779;-68
2023/06/01 02:23:19;;;;;;;20.03;6.70;;;7.80;99.90;;;;;;4387319;27;656598;-68
2023/06/01 02:26:06;;;;;;;15.37;7.10;;;7.70;99.90;;;;;;4357919;28;657796;-69
2023/06/01 02:28:54;;;;;;;15.80;7.60;;;7.70;99.90;;;;;;4378396;28;656915;-68
2023/06/01 02:31:41;;;;;;;19.10;7.27;;;7.70;99.90;;;;;;4359319;28;656645;-69
2023/06/01 02:34:28;;;;;;;21.80;7.63;;;7.70;99.90;;;;;;4388452;28;658253;-69
2023/06/01 02:37:17;;;;;;;19.40;7.50;;;7.60;99.90;;;;;;4359420;27;656734;-69
2023/06/01 02:40:05;;;;;;;17.23;6.87;;;7.70;99.90;;;;;;4378466;28;656813;-68
2023/06/01 02:42:52;;;;;;;16.37;6.33;;;7.70;99.90;;;;;;4379241;27;657641;-68
2023/06/01 02:45:39;;;;;;;20.50;7.27;;;7.60;99.90;;;;;;4420665;28;656231;-68
2023/06/01 02:48:27;;;;;;;14.07;6.73;;;7.60;99.90;;;;;;4359657;28;656860;-68
2023/06/01 02:51:15;;;;;;;12.43;6.07;;;7.60;99.90;;;;;;4377564;27;656482;-70
2023/06/01 02:54:04;;;;;;;16.13;6.60;;;7.60;99.90;;;;;;4391661;28;657027;-68
2023/06/01 02:56:51;;;;;;;13.10;5.77;;;7.70;99.90;;;;;;4378446;27;656676;-69
2023/06/01 02:59:38;;;;;;;14.57;5.67;;;7.60;99.90;;;;;;4387619;27;657450;-69
2023/06/01 03:02:26;;;;;;;12.33;5.60;;;7.70;99.90;;;;;;4386893;27;656935;-69
2023/06/01 03:05:14;;;;;;;13.03;5.70;;;7.70;99.90;;;;;;4394552;28;657468;-69
2023/06/01 03:08:01;;;;;;;10.63;5.65;;;7.70;99.90;;;;;;4370660;27;656835;-69
2023/06/01 03:10:50;;;;;;;13.23;5.80;;;7.80;99.90;;;;;;4382537;28;658459;-69
2023/06/01 03:13:37;;;;;;;15.90;6.13;;;7.80;99.90;;;;;;4358920;28;657359;-69
2023/06/01 03:16:25;;;;;;;16.20;6.07;;;7.80;99.90;;;;;;4386180;28;656502;-69
2023/06/01 03:19:12;;;;;;;17.03;5.63;;;7.80;99.90;;;;;;4365769;28;656806;-69
2023/06/01 03:22:00;;;;;;;14.70;6.20;;;7.90;99.90;;;;;;4388326;27;656549;-69
2023/06/01 03:24:49;;;;;;;13.43;6.23;;;7.90;99.90;;;;;;4385518;28;656121;-69
2023/06/01 03:27:37;;;;;;;14.30;6.40;;;8.00;99.90;;;;;;4370693;28;656906;-69
2023/06/01 03:30:25;;;;;;;13.67;6.13;;;8.00;99.90;;;;;;4380501;28;656304;-69
2023/06/01 03:33:12;;;;;;;16.70;6.97;;;8.10;99.90;;;;;;4386291;27;656702;-68
2023/06/01 03:36:01;;;;;;;17.30;6.83;;;8.20;99.90;;;;;;4393018;27;656820;-69
2023/06/01 03:38:48;;;;;;;16.60;7.70;;;8.20;99.90;;;;;;4420731;27;658060;-69
2023/06/01 03:41:35;;;;;;;15.63;7.27;;;8.30;99.90;;;;;;4361508;27;656518;-69
2023/06/01 03:44:25;;;;;;;12.40;6.47;;;8.30;99.90;;;;;;4423091;27;657466;-69
2023/06/01 03:47:13;;;;;;;15.83;7.43;;;8.40;99.90;;;;;;4380227;27;657524;-69
2023/06/01 03:50:01;;;;;;;12.03;6.93;;;8.60;99.90;;;;;;4360251;28;657349;-69
2023/06/01 03:52:48;;;;;;;10.00;6.50;;;8.70;99.90;;;;;;4386225;27;657795;-68
2023/06/01 03:55:35;;;;;;;13.80;6.23;;;8.80;99.90;;;;;;4377063;27;656601;-69
2023/06/01 03:58:23;;;;;;;13.47;6.50;;;8.80;99.90;;;;;;4389925;27;657807;-68
2023/06/01 04:01:12;;;;;;;16.83;6.85;;;9.00;99.90;;;;;;4364921;28;657078;-70
2023/06/01 04:03:59;;;;;;;12.63;6.00;;;9.10;99.90;;;;;;4381836;28;656793;-68
2023/06/01 04:06:47;;;;;;;13.43;6.03;;;9.30;99.90;;;;;;4363093;28;657632;-69
2023/06/01 04:09:34;;;;;;;17.50;6.47;;;9.40;99.90;;;;;;4377491;28;656459;-68
2023/06/01 04:12:21;;;;;;;14.50;6.53;;;9.60;99.90;;;;;;4363070;28;658894;-69
2023/06/01 04:15:09;;;;;;;14.43;6.37;;;9.70;99.90;;;;;;4382820;28;657923;-68
2023/06/01 04:17:58;;;;;;;22.13;9.13;;;9.90;99.90;;;;;;4355615;28;657732;-68
2023/06/01 04:20:45;;;;;;;19.57;7.83;;;10.00;99.90;;;;;;4375093;27;657154;-69
2023/06/01 04:23:33;;;;;;;16.13;7.80;;;10.20;99.90;;;;;;4381002;28;658660;-68
2023/06/01 04:26:20;;;;;;;17.73;8.03;;;10.40;99.90;;;;;;4369820;27;657871;-69
2023/06/01 04:29:11;;;;;;;14.13;7.43;;;10.60;99.90;;;;;;4385994;27;658355;-68
2023/06/01 04:31:59;;;;;;;12.23;6.93;;;10.70;99.90;;;;;;4377060;27;658357;-68
2023/06/01 04:34:49;;;;;;;13.57;7.20;;;11.00;99.90;;;;;;4358699;28;657834;-69
2023/06/01 04:37:37;;;;;;;13.97;6.73;;;11.20;99.90;;;;;;4357243;28;658730;-68
2023/06/01 04:40:24;;;;;;;15.90;7.40;;;11.40;99.90;;;;;;4380338;28;657606;-68
2023/06/01 04:43:12;;;;;;;16.83;7.20;;;11.60;99.90;;;;;;4390518;27;657831;-68
2023/06/01 04:46:03;;;;;;;15.07;6.87;;;11.90;99.90;;;;;;4380612;28;657848;-68
2023/06/01 04:48:51;;;;;;;15.80;6.10;;;12.10;99.90;;;;;;4336387;28;658179;-70
2023/06/01 04:51:40;;;;;;;15.17;5.90;;;12.30;99.90;;;;;;4388779;28;659809;-68
2023/06/01 04:54:28;;;;;;;12.87;6.03;;;12.60;99.90;;;;;;4351759;27;658552;-69
2023/06/01 04:57:16;;;;;;;17.87;5.73;;;12.90;99.90;;;;;;4373031;28;658088;-70
2023/06/01 05:00:08;;;;;;;14.00;5.83;;;13.10;99.90;;;;;;4386025;27;658098;-68
2023/06/01 05:02:56;;;;;;;15.20;6.70;;;13.30;99.90;;;;;;4357543;28;658294;-69
2023/06/01 05:05:45;;;;;;;13.57;6.03;;;13.60;99.90;;;;;;4392954;27;657941;-68
2023/06/01 05:08:35;;;;;;;14.27;5.93;;;13.70;99.90;;;;;;4359689;28;659051;-68
2023/06/01 05:11:23;;;;;;;13.10;6.47;;;13.90;99.90;;;;;;4357002;28;657842;-68
2023/06/01 05:14:10;;;;;;;19.80;7.23;;;14.00;99.90;;;;;;4373537;27;657894;-69
2023/06/01 05:16:57;;;;;;;14.47;6.40;;;14.20;99.90;;;;;;4377506;27;657473;-68
2023/06/01 05:19:45;;;;;;;13.07;6.40;;;14.30;99.90;;;;;;4394359;28;657366;-68
2023/06/01 05:22:32;;;;;;;18.63;5.90;;;14.40;99.90;;;;;;4367182;27;657987;-68
2023/06/01 05:25:21;;;;;;;14.07;7.20;;;14.60;99.90;;;;;;4397094;27;657684;-69
2023/06/01 05:28:08;;;;;;;18.83;6.60;;;14.70;99.90;;;;;;4363469;27;658158;-68
2023/06/01 05:30:55;;;;;;;15.23;6.60;;;14.80;99.90;;;;;;4357335;27;657867;-69
2023/06/01 05:33:42;;;;;;;10.07;5.93;;;15.00;99.90;;;;;;4382772;28;659304;-68
2023/06/01 05:36:31;;;;;;;17.60;6.40;;;15.10;99.90;;;;;;4396511;27;657562;-68
2023/06/01 05:39:19;;;;;;;15.60;7.17;;;15.30;99.90;;;;;;4357534;27;658675;-68
2023/06/01 05:42:08;;;;;;;16.93;6.70;;;15.30;99.90;;;;;;4365407;27;657957;-68
2023/06/01 05:44:55;;;;;;;17.20;6.87;;;15.40;99.90;;;;;;4376521;27;657980;-70
2023/06/01 05:47:42;;;;;;;15.13;6.50;;;15.40;99.90;;;;;;4381905;28;658863;-75
2023/06/01 05:50:30;;;;;;;17.53;7.00;;;15.60;99.90;;;;;;4385227;27;656864;-75
2023/06/01 05:53:17;;;;;;;16.83;7.30;;;15.70;99.90;;;;;;4358157;28;658791;-75
2023/06/01 05:56:04;;;;;;;13.10;7.00;;;15.90;99.90;;;;;;4378623;28;657324;-75
2023/06/01 05:58:53;;;;;;;16.50;7.37;;;16.00;99.90;;;;;;4354932;28;658247;-75
2023/06/01 06:01:40;;;;;;;17.80;8.17;;;16.10;99.90;;;;;;4361067;28;657849;-75
2023/06/01 06:04:28;;;;;;;23.43;7.63;;;16.10;99.90;;;;;;4404041;27;658193;-75
2023/06/01 06:07:15;;;;;;;15.77;7.80;;;16.20;99.90;;;;;;4389153;27;657660;-74
2023/06/01 06:10:02;;;;;;;18.97;8.27;;;16.30;99.90;;;;;;4382999;28;658046;-76
2023/06/01 06:12:51;;;;;;;18.77;8.10;;;16.40;99.90;;;;;;4395716;28;658364;-75
2023/06/01 06:15:39;;;;;;;20.80;8.00;;;16.50;99.90;;;;;;4379883;28;657362;-75
2023/06/01 06:18:26;;;;;;;19.37;7.83;;;16.70;99.90;;;;;;4354085;28;658308;-75
2023/06/01 06:21:14;;;;;;;19.70;8.13;;;16.80;99.90;;;;;;4376269;28;658328;-75
2023/06/01 06:24:01;;;;;;;20.70;8.00;;;16.80;99.90;;;;;;4373769;27;657689;-75
2023/06/01 06:26:48;;;;;;;18.70;7.90;;;17.10;99.90;;;;;;4392927;27;658428;-75
2023/06/01 06:29:35;;;;;;;24.90;8.30;;;17.30;99.90;;;;;;4377366;27;657948;-74
2023/06/01 06:32:24;;;;;;;22.37;8.03;;;17.40;99.90;;;;;;4386473;28;657407;-75
2023/06/01 06:35:12;;;;;;;19.23;7.83;;;17.50;99.90;;;;;;4372421;27;657391;-75
2023/06/01 06:38:00;;;;;;;20.23;7.70;;;17.50;99.90;;;;;;4369017;28;657929;-74
2023/06/01 06:40:48;;;;;;;21.93;7.17;;;17.70;99.90;;;;;;4389539;28;658793;-75
2023/06/01 06:43:35;;;;;;;12.77;6.27;;;17.80;99.90;;;;;;4358325;28;657662;-75
2023/06/01 06:46:22;;;;;;;15.40;6.30;;;17.90;99.90;;;;;;4373364;28;658091;-74
2023/06/01 06:49:12;;;;;;;20.57;7.07;;;18.00;99.90;;;;;;4381809;28;658818;-74
2023/06/01 06:51:59;;;;;;;19.03;7.67;;;18.00;99.90;;;;;;4374881;28;657775;-75
2023/06/01 06:54:46;;;;;;;13.82;7.18;;;18.20;99.90;;;;;;4359540;28;657349;-74
2023/06/01 06:57:35;;;;;;;16.13;7.00;;;18.20;99.90;;;;;;4386311;28;657870;-74
2023/06/01 07:00:22;;;;;;;16.40;6.57;;;18.30;99.90;;;;;;4358764;28;658438;-75
2023/06/01 07:03:10;;;;;;;13.30;6.20;;;18.50;99.90;;;;;;4391595;28;658112;-74
2023/06/01 07:05:59;;;;;;;16.30;6.50;;;18.70;99.90;;;;;;4400938;27;658931;-75
2023/06/01 07:08:46;;;;;;;14.27;6.20;;;18.70;99.90;;;;;;4373622;28;657601;-75
2023/06/01 07:11:34;;;;;;;12.07;6.20;;;18.70;99.90;;;;;;4382958;28;658461;-75
2023/06/01 07:14:21;;;;;;;14.03;6.40;;;18.80;99.90;;;;;;4358010;28;657652;-75
2023/06/01 07:17:09;;;;;;;14.77;6.23;;;18.90;99.90;;;;;;4391560;28;658271;-75
2023/06/01 07:19:56;;;;;;;14.47;5.50;;;19.10;99.90;;;;;;4358197;28;657312;-75
2023/06/01 07:22:44;;;;;;;16.20;5.60;;;19.40;99.90;;;;;;4392360;27;657689;-75
2023/06/01 07:25:32;;;;;;;13.30;5.60;;;19.60;99.90;;;;;;4364734;28;657998;-75
2023/06/01 07:28:20;;;;;;;17.23;5.80;;;19.70;99.90;;;;;;4388543;27;657659;-75
2023/06/01 07:31:07;;;;;;;16.43;5.43;;;19.90;99.90;;;;;;4365237;28;657793;-75
2023/06/01 07:33:55;;;;;;;13.38;5.43;;;20.00;99.90;;;;;;4379660;28;658344;-77
2023/06/01 07:36:45;;;;;;;14.27;4.97;;;20.30;99.90;;;;;;4361442;27;659047;-75
2023/06/01 07:39:33;;;;;;;9.50;3.97;;;20.30;99.90;;;;;;4371478;28;658179;-77
2023/06/01 07:42:20;;;;;;;8.13;3.97;;;20.20;98.00;;;;;;4373499;28;656343;-74
2023/06/01 07:45:09;;;;;;;12.23;4.27;;;20.20;97.10;;;;;;4421030;27;657497;-74
2023/06/01 07:47:56;;;;;;;18.90;5.07;;;20.30;96.30;;;;;;4368325;28;657424;-76
2023/06/01 07:50:43;;;;;;;10.57;5.00;;;20.70;98.40;;;;;;4386301;28;658101;-75
2023/06/01 07:53:32;;;;;;;15.03;4.73;;;20.70;90.20;;;;;;4375581;27;657566;-74
2023/06/01 07:56:21;;;;;;;10.48;4.55;;;20.70;91.50;;;;;;4409852;27;658124;-74
2023/06/01 07:59:08;;;;;;;17.23;5.07;;;20.70;90.30;;;;;;4380912;27;658058;-74
2023/06/01 08:01:56;;;;;;;10.03;4.73;;;20.90;84.70;;;;;;4362417;27;659007;-74
2023/06/01 08:04:44;;;;;;;9.87;3.53;;;21.10;88.10;;;;;;4393842;27;658257;-73
2023/06/01 08:07:31;;;;;;;8.10;3.40;;;21.30;76.00;;;;;;4374511;27;656530;-74
2023/06/01 08:10:18;;;;;;;9.57;3.13;;;21.10;71.10;;;;;;4384879;28;656914;-75
2023/06/01 08:13:07;;;;;;;11.80;3.83;;;21.60;71.50;;;;;;4367039;27;656406;-73
2023/06/01 08:15:54;;;;;;;15.07;3.70;;;21.70;71.60;;;;;;4389122;28;658088;-74
2023/06/01 08:18:41;;;;;;;9.47;3.63;;;21.70;82.60;;;;;;4365469;28;658153;-74
2023/06/01 08:21:28;;;;;;;7.00;2.60;;;21.80;72.20;;;;;;4379719;28;657450;-74
2023/06/01 08:24:17;;;;;;;6.47;2.60;;;21.70;58.20;;;;;;4368647;27;657142;-74
2023/06/01 08:27:16;;;;;;;5.33;2.40;;;22.00;60.70;;;;;;4380415;28;657518;-73
2023/06/01 08:30:06;;;;;;;5.17;2.70;;;22.10;56.90;;;;;;4363323;27;657582;-74
2023/06/01 08:32:53;;;;;;;5.30;2.60;;;22.20;60.00;;;;;;4389190;27;658081;-74
2023/06/01 08:35:41;;;;;;;8.43;2.90;;;22.40;57.40;;;;;;4369123;27;657302;-74
2023/06/01 08:38:32;;;;;;;8.73;2.83;;;22.40;59.00;;;;;;4405265;27;657473;-74
2023/06/01 08:41:21;;;;;;;12.07;3.20;;;22.30;58.80;;;;;;4357249;28;657361;-75
2023/06/01 08:44:09;;;;;;;7.17;3.00;;;22.30;59.90;;;;;;4395778;27;659157;-74
2023/06/01 08:46:58;;;;;;;10.80;2.90;;;22.10;53.90;;;;;;4371132;27;657078;-75
2023/06/01 08:49:45;;;;;;;4.87;2.30;;;22.50;56.20;;;;;;4380960;27;657445;-76
2023/06/01 08:52:33;;;;;;;7.40;2.67;;;22.40;53.40;;;;;;4404200;27;658357;-76
2023/06/01 08:55:20;;;;;;;7.83;3.10;;;22.40;53.40;;;;;;4368892;28;657848;-73
2023/06/01 08:58:08;;;;;;;4.00;2.40;;;22.70;54.40;;;;;;4401937;28;656567;-74
2023/06/01 09:00:55;;;;;;;11.17;2.50;;;22.60;54.60;;;;;;4371472;28;656965;-73
2023/06/01 09:03:44;;;;;;;7.90;2.93;;;22.00;54.60;;;;;;4387834;28;658156;-74
2023/06/01 09:06:31;;;;;;;9.77;2.93;;;22.30;54.10;;;;;;4362740;27;656977;-74
2023/06/01 09:09:18;;;;;;;17.37;3.33;;;22.70;53.00;;;;;;4382271;27;656785;-76
2023/06/01 09:12:20;;;;;;;6.13;2.50;;;22.90;51.70;;;;;;4380983;27;657606;-74
2023/06/01 09:15:11;;;;;;;10.20;2.53;;;22.60;51.30;;;;;;4373510;27;656375;-78
2023/06/01 09:18:06;;;;;;;7.43;2.80;;;22.80;52.70;;;;;;4356849;27;658667;-78
2023/06/01 09:20:56;;;;;;;9.13;2.60;;;23.20;52.70;;;;;;4374492;27;656745;-77
2023/06/01 09:23:44;;;;;;;7.37;2.60;;;23.30;50.20;;;;;;4389219;27;656796;-77
2023/06/01 09:26:31;;;;;;;7.57;2.90;;;23.40;51.00;;;;;;4373359;27;656559;-78
2023/06/01 09:29:18;;;;;;;8.37;2.60;;;23.20;46.80;;;;;;4409680;27;656840;-79
2023/06/01 09:32:06;;;;;;;8.07;2.80;;;23.40;48.20;;;;;;4362120;28;656462;-75
2023/06/01 09:34:55;;;;;;;5.27;2.70;;;23.60;47.80;;;;;;4410205;27;656635;-76
2023/06/01 09:37:55;;;;;;;6.17;2.70;;;23.90;47.00;;;;;;4380376;27;657657;-76
2023/06/01 09:40:42;;;;;;;7.33;3.53;;;24.10;47.70;;;;;;4370013;27;656244;-74
2023/06/01 09:43:30;;;;;;;7.73;3.17;;;23.60;46.50;;;;;;4378364;28;656977;-73
2023/06/01 09:46:18;;;;;;;9.20;2.80;;;24.00;48.60;;;;;;4390753;27;657660;-76
2023/06/01 09:49:06;;;;;;;8.37;2.90;;;24.20;44.20;;;;;;4382869;28;657849;-74
2023/06/01 09:51:54;;;;;;;6.73;2.77;;;24.00;46.40;;;;;;4387864;28;657103;-75
2023/06/01 09:54:46;;;;;;;9.50;3.20;;;23.80;44.70;;;;;;4378442;27;656576;-75
2023/06/01 09:57:33;;;;;;;7.30;2.70;;;24.30;45.00;;;;;;4356005;28;657549;-76
2023/06/01 10:00:24;;;;;;;8.10;3.30;;;24.30;45.40;;;;;;4385934;27;657494;-74
2023/06/01 10:03:11;;;;;;;10.60;2.90;;;24.50;46.40;;;;;;4363041;28;656908;-74
2023/06/01 10:05:58;;;;;;;5.85;3.17;;;24.90;45.90;;;;;;4384391;28;658152;-74
2023/06/01 10:08:45;;;;;;;11.05;3.10;;;24.70;47.00;;;;;;4370856;27;656428;-74
2023/06/01 10:11:34;;;;;;;8.20;3.08;;;24.90;43.10;;;;;;4397225;27;657692;-74
2023/06/01 10:14:21;;;;;;;6.45;2.50;;;25.00;46.30;;;;;;4378085;27;656852;-73
2023/06/01 10:17:09;;;;;;;9.80;3.35;;;25.50;47.90;;;;;;4383217;27;657023;-74
2023/06/01 10:19:57;;;;;;;7.95;3.60;;;25.40;44.10;;;;;;4377636;28;656961;-73
2023/06/01 10:22:44;;;;;;;10.75;3.50;;;25.30;44.60;;;;;;4407175;27;656172;-73
2023/06/01 10:25:32;;;;;;;7.82;2.97;;;25.10;43.30;;;;;;4358908;28;657914;-72
2023/06/01 10:28:21;;;;;;;8.85;3.53;;;24.80;42.20;;;;;;4401055;27;658120;-73
2023/06/01 10:31:33;;;;;;;9.95;3.40;;;24.20;43.90;;;;;;4359192;28;656737;-73
2023/06/01 10:34:38;;;;;;;9.60;3.13;;;24.60;46.00;;;;;;4363733;27;657039;-72
2023/06/01 10:37:26;;;;;;;6.45;3.13;;;24.10;45.00;;;;;;4334377;28;658120;-73
2023/06/01 10:40:20;;;;;;;7.07;3.20;;;24.20;45.30;;;;;;4384151;28;657055;-75
2023/06/01 10:43:08;;;;;;;6.43;3.10;;;24.70;44.60;;;;;;4341065;27;657587;-74
2023/06/01 10:45:57;;;;;;;6.97;2.95;;;24.60;45.90;;;;;;4382870;27;657093;-73
2023/06/01 10:49:02;;;;;;;5.95;3.20;;;24.60;45.20;;;;;;4385810;27;657480;-73
2023/06/01 10:51:50;;;;;;;8.88;3.22;;;24.60;46.60;;;;;;4357644;27;656592;-74
2023/06/01 10:54:37;;;;;;;7.78;2.95;;;24.50;43.10;;;;;;4364457;28;657184;-74
2023/06/01 10:57:25;;;;;;;7.82;3.17;;;24.80;45.30;;;;;;4385730;27;656931;-74
2023/06/01 11:00:17;;;;;;;5.30;3.00;;;24.80;45.10;;;;;;4360106;28;657702;-72
2023/06/01 11:03:06;;;;;;;7.22;3.40;;;24.90;44.90;;;;;;4376659;27;657141;-72
2023/06/01 11:05:53;;;;;;;9.50;3.38;;;24.30;46.30;;;;;;4377045;27;657203;-74
2023/06/01 11:08:59;;;;;;;8.35;3.50;;;24.20;46.70;;;;;;4362641;28;656888;-72
2023/06/01 11:12:02;;;;;;;11.27;3.50;;;24.10;44.10;;;;;;4370512;27;657088;-73
2023/06/01 11:15:09;;;;;;;7.68;3.20;;;24.80;49.50;;;;;;4356915;28;657782;-73
2023/06/01 11:17:57;;;;;;;4.93;2.72;;;25.40;46.40;;;;;;4367776;28;656840;-73
2023/06/01 11:20:45;;;;;;;9.85;3.30;;;25.20;44.90;;;;;;4392086;28;656294;-73
2023/06/01 11:23:33;;;;;;;6.57;3.28;;;25.00;46.20;;;;;;4364626;28;657153;-73
2023/06/01 11:26:24;;;;;;;7.70;3.25;;;25.10;45.40;;;;;;4360852;28;656833;-72
2023/06/01 11:29:13;;;;;;;7.82;3.17;;;25.00;46.40;;;;;;4362318;28;656618;-72
2023/06/01 11:32:01;;;;;;;8.55;3.30;;;25.30;46.40;;;;;;4362391;28;656979;-72
2023/06/01 11:34:48;;;;;;;7.05;3.00;;;26.00;48.00;;;;;;4389880;27;657748;-74
2023/06/01 11:37:40;;;;;;;9.23;3.40;;;26.20;47.90;;;;;;4364365;28;656053;-72
2023/06/01 11:40:28;;;;;;;13.38;3.33;;;26.20;44.90;;;;;;4359596;28;657461;-73
2023/06/01 11:43:27;;;;;;;8.68;3.00;;;26.10;41.70;;;;;;4369152;27;657789;-73
2023/06/01 11:46:14;;;;;;;9.23;3.03;;;26.40;45.30;;;;;;4364535;28;656794;-74
2023/06/01 11:49:04;;;;;;;6.95;2.83;;;26.70;42.80;;;;;;4364645;28;657094;-73
2023/06/01 11:51:52;;;;;;;11.57;3.40;;;26.60;44.70;;;;;;4367043;28;656654;-74
2023/06/01 11:54:41;;;;;;;6.15;2.53;;;26.50;41.50;;;;;;4403004;27;657514;-74
2023/06/01 11:57:28;;;;;;;8.90;3.03;;;25.50;42.20;;;;;;4358227;28;657075;-74
2023/06/01 12:00:16;;;;;;;13.07;2.90;;;25.90;42.20;;;;;;4382111;27;656586;-75
2023/06/01 12:03:07;;;;;;;9.18;2.60;;;26.10;42.90;;;;;;4386205;28;658089;-73
2023/06/01 12:05:55;;;;;;;9.07;2.88;;;26.00;42.60;;;;;;4363961;28;657358;-73
2023/06/01 12:08:43;;;;;;;6.80;2.97;;;26.10;41.90;;;;;;4436822;27;656470;-72
2023/06/01 12:11:32;;;;;;;5.55;2.63;;;25.30;39.70;;;;;;4386870;27;656847;-71
2023/06/01 12:14:19;;;;;;;4.40;2.50;;;25.40;46.00;;;;;;4406963;27;656440;-73
2023/06/01 12:17:07;;;;;;;6.55;2.83;;;26.20;40.40;;;;;;4363434;27;658549;-74
2023/06/01 12:19:54;;;;;;;13.10;2.65;;;25.80;41.40;;;;;;4380811;27;656621;-75
2023/06/01 12:22:41;;;;;;;5.78;2.92;;;25.00;40.20;;;;;;4361898;27;657811;-74
2023/06/01 12:25:30;;;;;;;8.93;2.75;;;25.20;41.10;;;;;;4395757;27;657511;-74
2023/06/01 12:28:18;;;;;;;7.80;2.47;;;25.40;43.40;;;;;;4360245;28;656972;-73
2023/06/01 12:31:10;;;;;;;5.07;2.80;;;26.30;42.20;;;;;;4386034;27;657851;-75
2023/06/01 12:33:57;;;;;;;7.97;2.70;;;26.60;39.40;;;;;;4358250;28;657467;-74
2023/06/01 12:36:44;;;;;;;7.25;2.92;;;26.00;39.60;;;;;;4378629;28;658146;-74
2023/06/01 12:39:36;;;;;;;6.07;2.90;;;26.20;41.60;;;;;;4389561;27;656836;-72
2023/06/01 12:42:35;;;;;;;9.52;2.63;;;26.50;40.50;;;;;;4358111;27;657028;-72
2023/06/01 12:45:23;;;;;;;6.30;2.97;;;26.20;40.10;;;;;;4357079;28;656841;-73
2023/06/01 12:48:10;;;;;;;4.75;2.35;;;26.10;39.60;;;;;;4362895;28;657105;-71
2023/06/01 12:50:58;;;;;;;6.35;2.63;;;26.90;39.50;;;;;;4402939;27;657578;-74
2023/06/01 12:53:45;;;;;;;11.95;2.90;;;26.90;38.70;;;;;;4365198;28;657384;-73
2023/06/01 12:56:33;;;;;;;7.88;2.85;;;26.50;38.70;;;;;;4391717;27;659037;-73
2023/06/01 12:59:20;;;;;;;5.70;2.38;;;26.40;37.90;;;;;;4388972;27;657107;-73
2023/06/01 13:02:09;;;;;;;7.20;2.58;;;26.00;38.00;;;;;;4396348;28;656988;-73
2023/06/01 13:04:57;;;;;;;7.10;2.60;;;26.40;40.10;;;;;;4363813;27;656600;-76
2023/06/01 13:07:45;;;;;;;8.90;2.60;;;26.70;36.90;;;;;;4376736;28;656055;-72
2023/06/01 13:10:32;;;;;;;5.97;2.60;;;26.90;41.90;;;;;;4364194;27;657740;-72
2023/06/01 13:13:19;;;;;;;8.35;2.88;;;26.60;37.50;;;;;;4394012;27;658140;-73
2023/06/01 13:16:07;;;;;;;10.23;2.35;;;26.60;39.70;;;;;;4394879;27;656698;-73
2023/06/01 13:18:56;;;;;;;6.38;2.38;;;26.90;39.20;;;;;;4396559;27;657289;-76
2023/06/01 13:21:43;;;;;;;5.57;2.38;;;26.80;38.00;;;;;;4361109;28;656636;-72
2023/06/01 13:24:30;;;;;;;7.10;2.40;;;25.90;36.80;;;;;;4364909;28;656817;-73
2023/06/01 13:27:17;;;;;;;10.52;2.47;;;26.10;39.40;;;;;;4383564;28;655673;-73
2023/06/01 13:30:07;;;;;;;8.43;2.72;;;26.80;40.40;;;;;;4393208;27;657643;-72
2023/06/01 13:32:54;;;;;;;7.07;2.92;;;26.30;38.00;;;;;;4380729;28;656497;-74
2023/06/01 13:35:43;;;;;;;6.53;2.30;;;26.80;39.00;;;;;;4360413;28;657814;-72
2023/06/01 13:38:31;;;;;;;6.80;2.80;;;26.90;39.50;;;;;;4363158;28;656435;-72
2023/06/01 13:41:18;;;;;;;7.30;2.58;;;26.60;38.10;;;;;;4384285;28;657122;-72
2023/06/01 13:44:06;;;;;;;7.18;2.60;;;26.90;41.80;;;;;;4373155;28;657012;-74
2023/06/01 13:46:53;;;;;;;11.57;2.80;;;27.00;38.20;;;;;;4382844;28;657041;-74
2023/06/01 13:49:40;;;;;;;9.02;2.72;;;27.00;38.40;;;;;;4365730;28;657966;-71
2023/06/01 13:52:29;;;;;;;9.18;2.35;;;26.40;38.00;;;;;;4408148;28;656707;-75
2023/06/01 13:55:17;;;;;;;8.23;2.53;;;26.70;37.80;;;;;;4368124;28;656723;-74
2023/06/01 13:58:04;;;;;;;11.13;2.70;;;26.80;38.30;;;;;;4385573;27;656597;-73
2023/06/01 14:00:52;;;;;;;6.05;2.80;;;26.60;38.90;;;;;;4364935;28;657441;-73
2023/06/01 14:03:39;;;;;;;6.60;2.63;;;26.90;38.50;;;;;;4379228;28;656045;-74
2023/06/01 14:06:26;;;;;;;9.68;2.80;;;26.70;41.30;;;;;;4368990;28;657132;-74
2023/06/01 14:09:15;;;;;;;6.78;2.55;;;26.70;40.20;;;;;;4392772;27;657838;-76
2023/06/01 14:12:02;;;;;;;6.32;2.50;;;26.70;41.30;;;;;;4368429;27;657586;-72
2023/06/01 14:14:50;;;;;;;12.32;3.03;;;26.20;39.00;;;;;;4388285;27;656711;-73
2023/06/01 14:17:37;;;;;;;7.50;2.65;;;26.00;42.50;;;;;;4369477;28;658213;-74
2023/06/01 14:20:25;;;;;;;7.70;2.63;;;26.30;40.00;;;;;;4377674;28;656724;-73
2023/06/01 14:23:13;;;;;;;6.88;2.35;;;26.50;40.50;;;;;;4424874;27;657169;-73
2023/06/01 14:26:02;;;;;;;8.32;2.42;;;27.10;39.50;;;;;;4362512;28;657450;-72